Time;durP1;ratioP1;P1;durP2;ratioP2;P2;SDS_P1;SDS_P2;PMS_P1;PMS_P2;Temp;Humidity;BMP_temperature;BMP_pressure;BME280_temperature;BME280_humidity;BME280_pressure;Samples;Min_cycle;Max_cycle;Signal;HPM_P1;HPM_P2
2021/11/24 00:00:54;;;;;;;2.97;1.07;;;9.90;99.90;;;;;;6147111;23;20417;-72
2021/11/24 00:03:32;;;;;;;1.43;1.33;;;9.90;99.90;;;;;;6149650;23;20422;-71
2021/11/24 00:06:25;;;;;;;1.30;1.20;;;9.70;99.90;;;;;;6156770;23;20422;-71
2021/11/24 00:09:33;;;;;;;1.47;1.40;;;9.60;99.90;;;;;;6152393;23;20445;-75
2021/11/24 00:12:06;;;;;;;4.20;1.00;;;9.60;99.90;;;;;;6148846;23;20832;-71
2021/11/24 00:14:38;;;;;;;1.80;1.05;;;9.50;99.90;;;;;;6154772;23;20438;-72
2021/11/24 00:17:16;;;;;;;1.17;1.07;;;9.40;99.90;;;;;;6152206;23;20266;-74
2021/11/24 00:20:10;;;;;;;2.53;1.15;;;9.30;99.90;;;;;;6146523;23;20493;-74
2021/11/24 00:22:43;;;;;;;1.73;1.27;;;9.20;99.90;;;;;;6147188;23;20179;-71
2021/11/24 00:25:15;;;;;;;3.75;1.55;;;9.10;99.90;;;;;;6150720;23;20939;-74
2021/11/24 00:27:47;;;;;;;2.33;1.30;;;9.00;99.90;;;;;;6149089;23;20190;-74
2021/11/24 00:30:18;;;;;;;2.75;1.85;;;8.90;99.90;;;;;;6146901;23;20183;-75
2021/11/24 00:32:49;;;;;;;2.50;1.60;;;8.80;99.90;;;;;;6149202;23;21022;-75
2021/11/24 00:35:23;;;;;;;2.00;1.50;;;8.80;99.90;;;;;;6146544;23;20978;-75
2021/11/24 00:37:56;;;;;;;2.72;1.30;;;8.70;99.90;;;;;;6150447;23;20176;-75
2021/11/24 00:40:35;;;;;;;1.45;1.35;;;8.60;99.90;;;;;;6150465;23;20465;-75
2021/11/24 00:43:10;;;;;;;2.28;1.77;;;8.50;99.90;;;;;;6148988;23;20505;-75
2021/11/24 00:45:41;;;;;;;1.65;1.55;;;8.50;99.90;;;;;;6148019;23;20183;-74
2021/11/24 00:48:13;;;;;;;2.22;1.73;;;8.40;99.90;;;;;;6151109;23;20179;-75
2021/11/24 00:50:44;;;;;;;4.55;1.70;;;8.30;99.90;;;;;;6149982;23;20190;-75
2021/11/24 00:53:19;;;;;;;2.15;1.70;;;8.30;99.90;;;;;;6151132;23;20526;-75
2021/11/24 00:55:52;;;;;;;36.78;8.50;;;8.30;99.90;;;;;;6151139;23;20185;-75
2021/11/24 00:58:23;;;;;;;2.60;1.70;;;8.30;99.90;;;;;;6147900;23;20207;-75
2021/11/24 01:00:55;;;;;;;3.22;2.80;;;8.20;99.90;;;;;;6149432;23;20202;-76
2021/11/24 01:03:26;;;;;;;3.17;2.88;;;8.10;99.90;;;;;;6151355;23;20639;-73
2021/11/24 01:06:00;;;;;;;5.07;2.60;;;8.10;99.90;;;;;;6148332;23;20175;-74
2021/11/24 01:08:33;;;;;;;2.42;2.33;;;8.00;99.90;;;;;;6147821;23;20249;-73
2021/11/24 01:11:05;;;;;;;6.15;3.00;;;7.80;99.90;;;;;;6145681;23;20186;-74
2021/11/24 01:13:39;;;;;;;4.47;2.15;;;7.70;99.90;;;;;;6149826;23;20599;-74
2021/11/24 01:16:24;;;;;;;2.65;2.45;;;7.70;99.90;;;;;;6156574;23;20201;-74
2021/11/24 01:18:56;;;;;;;3.08;2.20;;;7.60;99.90;;;;;;6149413;23;20538;-74
2021/11/24 01:28:26;;;;;;;3.95;2.60;;;7.60;99.90;;;;;;6148283;23;20193;-75
2021/11/24 01:31:00;;;;;;;4.53;3.13;;;7.40;99.90;;;;;;6145101;23;20191;-77
2021/11/24 01:36:50;;;;;;;3.35;3.05;;;7.40;99.90;;;;;;6148057;23;20530;-71
2021/11/24 01:39:22;;;;;;;5.05;4.13;;;7.40;99.90;;;;;;6150100;23;20194;-73
2021/11/24 01:42:29;;;;;;;6.68;3.65;;;7.40;99.90;;;;;;6149649;23;20187;-71
2021/11/24 02:11:19;;;;;;;6.65;3.10;;;6.90;99.90;;;;;;6051524;23;20257;-73
2021/11/24 02:13:53;;;;;;;7.50;3.72;;;6.80;99.90;;;;;;6117882;23;20188;-73
2021/11/24 02:16:25;;;;;;;4.38;3.03;;;6.70;99.90;;;;;;6123248;23;20184;-75
2021/11/24 02:19:02;;;;;;;4.75;3.45;;;6.70;99.90;;;;;;6123236;23;20201;-74
2021/11/24 02:21:39;;;;;;;4.07;3.65;;;6.70;99.90;;;;;;6122430;23;20578;-75
2021/11/24 02:24:32;;;;;;;4.00;3.60;;;6.70;99.90;;;;;;6112530;23;20187;-74
2021/11/24 02:27:06;;;;;;;8.18;4.28;;;6.70;99.90;;;;;;6120069;23;20196;-73
2021/11/24 02:29:49;;;;;;;6.30;4.85;;;6.60;99.90;;;;;;6117972;23;20633;-74
2021/11/24 02:32:47;;;;;;;5.15;4.47;;;6.50;99.90;;;;;;6117634;23;20205;-74
2021/11/24 02:35:22;;;;;;;5.85;4.68;;;6.40;99.90;;;;;;6113752;23;20194;-73
2021/11/24 02:37:57;;;;;;;6.28;4.85;;;6.40;99.90;;;;;;6120092;23;20245;-72
2021/11/24 02:40:31;;;;;;;4.70;4.30;;;6.40;99.90;;;;;;6117015;23;20220;-73
2021/11/24 02:43:03;;;;;;;7.13;5.57;;;6.30;99.90;;;;;;6114592;23;20179;-72
2021/11/24 02:45:34;;;;;;;5.82;4.47;;;6.20;99.90;;;;;;6116011;23;20279;-70
2021/11/24 02:48:06;;;;;;;5.68;5.07;;;6.20;99.90;;;;;;6117283;23;20184;-71
2021/11/24 02:50:37;;;;;;;7.60;6.80;;;6.20;99.90;;;;;;6117098;23;20188;-71
2021/11/24 02:53:09;;;;;;;9.45;7.20;;;6.10;99.90;;;;;;6120218;23;20207;-72
2021/11/24 02:55:43;;;;;;;9.02;7.40;;;6.10;99.90;;;;;;6118824;23;20474;-72
2021/11/24 02:58:14;;;;;;;9.25;7.90;;;6.20;99.90;;;;;;6116626;23;20184;-72
2021/11/24 03:00:45;;;;;;;8.80;7.90;;;6.20;99.90;;;;;;6116176;23;20529;-69
2021/11/24 03:03:16;;;;;;;10.63;8.25;;;6.10;99.90;;;;;;6119786;23;20258;-70
2021/11/24 03:05:47;;;;;;;9.05;8.10;;;6.10;99.90;;;;;;6114467;23;20263;-72
2021/11/24 03:08:20;;;;;;;11.63;8.73;;;6.10;99.90;;;;;;6116227;23;20187;-70
2021/11/24 03:10:51;;;;;;;13.25;9.23;;;6.00;99.90;;;;;;6118197;23;20212;-70
2021/11/24 03:13:21;;;;;;;9.85;8.85;;;6.00;99.90;;;;;;6118379;23;20200;-71
2021/11/24 03:15:52;;;;;;;12.80;9.20;;;5.90;99.90;;;;;;6120384;23;20271;-70
2021/11/24 03:18:23;;;;;;;12.30;9.77;;;5.90;99.90;;;;;;6119341;23;20191;-70
2021/11/24 03:20:54;;;;;;;14.55;9.80;;;5.90;99.90;;;;;;6123719;23;20270;-69
2021/11/24 03:23:27;;;;;;;14.48;10.27;;;6.00;99.90;;;;;;6118523;23;20334;-71
2021/11/24 03:25:58;;;;;;;1999.90;479.60;;;5.90;99.90;;;;;;6118865;23;20184;-70
2021/11/24 03:28:28;;;;;;;1999.90;701.25;;;5.90;99.90;;;;;;6119376;23;20184;-71
2021/11/24 03:31:00;;;;;;;287.05;51.58;;;6.00;99.90;;;;;;6116878;23;20263;-72
2021/11/24 03:33:33;;;;;;;18.05;12.10;;;5.90;99.90;;;;;;6117847;23;20692;-71
2021/11/24 03:36:05;;;;;;;13.27;11.10;;;5.90;99.90;;;;;;6118502;23;20180;-71
2021/11/24 03:38:58;;;;;;;16.55;14.73;;;5.80;99.90;;;;;;6116770;23;20649;-72
2021/11/24 03:41:34;;;;;;;19.23;14.82;;;5.70;99.90;;;;;;6120384;23;20212;-72
2021/11/24 03:47:36;;;;;;;14.35;12.85;;;5.70;99.90;;;;;;6116437;23;20667;-71
2021/11/24 03:50:09;;;;;;;19.30;15.27;;;5.60;99.90;;;;;;6121524;23;20215;-71
2021/11/24 03:52:47;;;;;;;18.33;14.68;;;5.50;99.90;;;;;;6119630;23;20228;-74
2021/11/24 03:55:26;;;;;;;18.60;16.05;;;5.50;99.90;;;;;;6120029;23;20184;-72
2021/11/24 03:57:58;;;;;;;20.60;14.85;;;5.50;99.90;;;;;;6120713;23;20199;-72
2021/11/24 04:00:32;;;;;;;23.55;15.57;;;5.50;99.90;;;;;;6120150;23;20190;-73
2021/11/24 04:03:04;;;;;;;23.05;15.48;;;5.40;99.90;;;;;;6119957;23;20179;-71
2021/11/24 04:05:36;;;;;;;45.97;21.45;;;5.40;99.90;;;;;;6120193;23;20188;-72
2021/11/24 04:08:07;;;;;;;20.00;16.75;;;5.40;99.90;;;;;;6119103;23;20303;-72
2021/11/24 04:10:42;;;;;;;1999.90;588.45;;;5.40;99.90;;;;;;6122563;23;20215;-72
2021/11/24 04:13:13;;;;;;;21.40;16.90;;;5.40;99.90;;;;;;6120367;23;20248;-72
2021/11/24 04:15:44;;;;;;;16.40;14.00;;;5.30;99.90;;;;;;6117313;23;20266;-71
2021/11/24 04:18:15;;;;;;;16.08;14.38;;;5.20;99.90;;;;;;6120619;23;20188;-71
2021/11/24 04:20:46;;;;;;;18.33;15.05;;;5.20;99.90;;;;;;6119789;23;20183;-71
2021/11/24 04:23:17;;;;;;;19.30;16.60;;;5.30;99.90;;;;;;6125086;23;20199;-72
2021/11/24 04:25:49;;;;;;;20.77;17.05;;;5.50;99.90;;;;;;6122457;23;20189;-72
2021/11/24 04:28:21;;;;;;;20.08;17.98;;;5.50;99.90;;;;;;6115542;23;20279;-72
2021/11/24 04:30:55;;;;;;;22.85;16.58;;;5.60;99.90;;;;;;6120300;23;20275;-72
2021/11/24 04:33:28;;;;;;;17.52;15.73;;;5.60;99.90;;;;;;6120843;23;20213;-71
2021/11/24 04:36:01;;;;;;;1999.90;656.67;;;5.70;99.90;;;;;;6118856;23;20180;-72
2021/11/24 04:38:32;;;;;;;27.10;17.48;;;5.70;99.90;;;;;;6121383;23;20197;-72
2021/11/24 04:41:05;;;;;;;26.90;17.95;;;5.80;99.90;;;;;;6120679;23;20267;-72
2021/11/24 04:43:40;;;;;;;17.48;15.07;;;5.70;99.90;;;;;;6122648;23;20271;-72
2021/11/24 04:46:12;;;;;;;17.80;15.43;;;5.70;99.90;;;;;;6117029;23;20188;-73
2021/11/24 04:48:44;;;;;;;17.80;14.80;;;5.60;99.90;;;;;;6117340;23;20179;-72
2021/11/24 04:51:15;;;;;;;19.00;17.00;;;5.60;99.90;;;;;;6118947;23;20671;-71
2021/11/24 04:53:47;;;;;;;19.38;15.65;;;5.60;99.90;;;;;;6119341;23;20204;-72
2021/11/24 04:56:21;;;;;;;17.38;14.30;;;5.70;99.90;;;;;;6120596;23;20295;-72
2021/11/24 04:58:54;;;;;;;20.38;15.88;;;5.70;99.90;;;;;;6112939;23;20208;-71
2021/11/24 05:01:25;;;;;;;16.50;14.80;;;5.90;99.90;;;;;;6119306;23;20180;-71
2021/11/24 05:03:57;;;;;;;17.65;15.25;;;5.90;99.90;;;;;;6120839;23;20192;-73
2021/11/24 05:06:30;;;;;;;18.05;13.75;;;5.90;99.90;;;;;;6120811;23;20190;-72
2021/11/24 05:09:02;;;;;;;15.65;13.82;;;6.00;99.90;;;;;;6120618;23;20184;-72
2021/11/24 05:11:37;;;;;;;19.02;15.68;;;5.90;99.90;;;;;;6120438;23;20196;-72
2021/11/24 05:14:13;;;;;;;16.00;14.40;;;5.90;99.90;;;;;;6121928;23;20199;-73
2021/11/24 05:16:46;;;;;;;16.55;12.98;;;5.90;99.90;;;;;;6117552;23;20267;-72
2021/11/24 05:19:22;;;;;;;15.60;13.43;;;5.90;99.90;;;;;;6120514;23;20187;-72
2021/11/24 05:21:55;;;;;;;16.08;14.38;;;6.00;99.90;;;;;;6123745;23;20254;-72
2021/11/24 05:24:26;;;;;;;16.23;14.63;;;6.10;99.90;;;;;;6121619;23;20320;-72
2021/11/24 05:26:59;;;;;;;18.60;14.68;;;6.10;99.90;;;;;;6124940;23;20180;-71
2021/11/24 05:29:30;;;;;;;16.08;14.45;;;6.20;99.90;;;;;;6119222;23;20602;-72
2021/11/24 05:32:01;;;;;;;19.70;15.70;;;6.30;99.90;;;;;;6119131;23;20585;-73
2021/11/24 05:34:33;;;;;;;16.10;14.32;;;6.30;99.90;;;;;;6118665;23;20485;-72
2021/11/24 05:37:07;;;;;;;16.55;14.95;;;6.40;99.90;;;;;;6119919;23;20491;-72
2021/11/24 05:39:43;;;;;;;15.55;13.50;;;6.40;99.90;;;;;;6121322;23;20187;-73
2021/11/24 05:42:17;;;;;;;16.17;14.30;;;6.40;99.90;;;;;;6120410;23;20184;-73
2021/11/24 05:45:02;;;;;;;16.02;13.75;;;6.40;99.90;;;;;;6120136;23;20199;-72
2021/11/24 05:50:44;;;;;;;16.63;14.93;;;6.40;99.90;;;;;;6119197;23;20183;-73
2021/11/24 05:53:18;;;;;;;16.55;14.35;;;6.50;99.90;;;;;;6119526;23;20187;-71
2021/11/24 05:55:50;;;;;;;18.00;16.05;;;6.60;99.90;;;;;;6118408;23;20258;-73
2021/11/24 05:58:24;;;;;;;18.52;16.30;;;6.60;99.90;;;;;;6121840;23;20259;-72
2021/11/24 06:00:56;;;;;;;20.05;18.05;;;6.60;99.90;;;;;;6121040;23;20211;-72
2021/11/24 06:03:29;;;;;;;19.20;17.30;;;6.60;99.90;;;;;;6124230;23;20262;-73
2021/11/24 06:06:01;;;;;;;20.13;18.13;;;6.60;99.90;;;;;;6119948;23;20180;-73
2021/11/24 06:08:35;;;;;;;21.73;18.02;;;6.60;99.90;;;;;;6120606;23;20291;-72
2021/11/24 06:11:08;;;;;;;19.80;17.70;;;6.60;99.90;;;;;;6119656;23;20521;-72
2021/11/24 06:13:41;;;;;;;19.80;17.77;;;6.60;99.90;;;;;;6120186;23;20577;-72
2021/11/24 06:16:15;;;;;;;18.77;16.48;;;6.50;99.90;;;;;;6119968;23;20190;-73
2021/11/24 06:18:47;;;;;;;19.67;17.75;;;6.60;99.90;;;;;;6120597;23;20251;-72
2021/11/24 06:21:22;;;;;;;19.52;17.42;;;6.60;99.90;;;;;;6117884;23;20268;-72
2021/11/24 06:23:53;;;;;;;18.38;16.55;;;6.50;99.90;;;;;;6120183;23;20263;-71
2021/11/24 06:26:24;;;;;;;20.02;14.60;;;6.40;99.90;;;;;;6122869;23;20188;-72
2021/11/24 06:28:56;;;;;;;17.25;15.13;;;6.40;99.90;;;;;;6120927;23;20179;-71
2021/11/24 06:31:29;;;;;;;16.13;14.70;;;6.30;99.90;;;;;;6117249;23;20634;-72
2021/11/24 06:34:00;;;;;;;17.52;12.43;;;6.20;99.90;;;;;;6119220;23;20219;-72
2021/11/24 06:36:53;;;;;;;14.30;12.80;;;6.10;99.90;;;;;;6118522;23;20504;-72
2021/11/24 06:39:25;;;;;;;16.17;13.55;;;6.10;99.90;;;;;;6120335;23;20192;-72
2021/11/24 06:41:55;;;;;;;13.85;12.32;;;6.00;99.90;;;;;;6120796;23;20198;-71
2021/11/24 06:44:28;;;;;;;15.18;13.60;;;5.90;99.90;;;;;;6120513;23;20179;-71
2021/11/24 06:46:59;;;;;;;15.48;13.90;;;5.80;99.90;;;;;;6116226;23;20183;-71
2021/11/24 06:49:31;;;;;;;14.98;13.48;;;5.80;99.90;;;;;;6118725;23;20292;-72
2021/11/24 06:52:02;;;;;;;17.05;15.27;;;5.80;99.90;;;;;;6115722;23;20191;-72
2021/11/24 06:54:33;;;;;;;14.40;13.00;;;5.70;99.90;;;;;;6120655;23;20275;-70
2021/11/24 06:57:04;;;;;;;14.50;13.00;;;5.70;99.90;;;;;;6118201;23;20402;-71
2021/11/24 06:59:37;;;;;;;14.80;13.27;;;5.70;99.90;;;;;;6119826;23;20187;-71
2021/11/24 07:02:08;;;;;;;13.90;12.50;;;5.70;99.90;;;;;;6116213;23;20615;-71
2021/11/24 07:04:40;;;;;;;13.55;12.20;;;5.60;99.90;;;;;;6116940;23;20184;-71
2021/11/24 07:07:11;;;;;;;14.20;12.80;;;5.70;99.90;;;;;;6118105;23;20556;-72
2021/11/24 07:09:46;;;;;;;16.10;14.48;;;5.70;99.90;;;;;;6120600;23;20184;-71
2021/11/24 07:12:18;;;;;;;18.33;13.85;;;5.70;99.90;;;;;;6118500;23;20210;-71
2021/11/24 07:14:51;;;;;;;16.25;14.57;;;5.80;99.90;;;;;;6120351;23;20653;-72
2021/11/24 07:17:22;;;;;;;16.35;14.30;;;5.80;99.90;;;;;;6114283;23;20184;-71
2021/11/24 07:19:53;;;;;;;15.60;14.05;;;5.80;99.90;;;;;;6116625;23;20214;-71
2021/11/24 07:22:24;;;;;;;15.10;13.45;;;5.80;99.90;;;;;;6118210;23;20461;-71
2021/11/24 07:25:00;;;;;;;14.45;12.65;;;5.80;99.90;;;;;;6118616;23;20226;-71
2021/11/24 07:27:31;;;;;;;17.35;15.07;;;5.80;99.90;;;;;;6118691;23;20183;-72
2021/11/24 07:30:04;;;;;;;14.40;13.00;;;5.80;99.90;;;;;;6125191;23;20192;-72
2021/11/24 07:32:35;;;;;;;14.48;13.05;;;5.80;99.90;;;;;;6119296;23;20192;-71
2021/11/24 07:35:07;;;;;;;15.05;13.55;;;5.90;99.90;;;;;;6121072;23;20302;-71
2021/11/24 07:37:38;;;;;;;14.68;13.07;;;6.00;99.90;;;;;;6122041;23;20283;-72
2021/11/24 07:40:11;;;;;;;14.15;12.60;;;6.00;99.90;;;;;;6120903;23;20184;-71
2021/11/24 07:42:43;;;;;;;15.20;13.70;;;5.90;99.90;;;;;;6121961;23;20188;-72
2021/11/24 07:45:15;;;;;;;15.38;12.23;;;6.00;99.90;;;;;;6118808;23;20255;-71
2021/11/24 07:47:48;;;;;;;13.25;11.95;;;6.10;99.90;;;;;;6118319;23;20198;-72
2021/11/24 07:50:21;;;;;;;13.13;11.82;;;6.10;99.90;;;;;;6119647;23;20184;-72
2021/11/24 07:52:52;;;;;;;13.90;12.40;;;6.10;99.90;;;;;;6109527;23;20223;-70
2021/11/24 07:55:23;;;;;;;13.55;12.13;;;6.10;99.90;;;;;;6093267;23;20211;-71
2021/11/24 07:57:55;;;;;;;14.50;12.88;;;6.10;99.90;;;;;;6087252;23;20550;-71
2021/11/24 08:00:28;;;;;;;12.95;11.65;;;6.10;99.90;;;;;;6083098;23;20181;-71
2021/11/24 08:02:59;;;;;;;12.20;11.00;;;6.20;99.90;;;;;;6092605;23;20188;-71
2021/11/24 08:05:30;;;;;;;12.32;10.88;;;6.20;99.90;;;;;;6090801;23;20618;-72
2021/11/24 08:08:00;;;;;;;10.82;9.73;;;6.20;99.90;;;;;;6092105;23;20263;-71
2021/11/24 08:10:31;;;;;;;11.45;10.25;;;6.20;99.90;;;;;;6089008;23;20264;-71
2021/11/24 08:13:02;;;;;;;11.40;9.82;;;6.20;99.90;;;;;;6090817;23;20191;-70
2021/11/24 08:15:39;;;;;;;10.98;9.88;;;6.30;99.90;;;;;;6090305;23;20640;-70
2021/11/24 08:18:10;;;;;;;14.60;10.85;;;6.30;99.90;;;;;;6088810;23;20649;-71
2021/11/24 08:20:41;;;;;;;10.80;9.80;;;6.30;99.90;;;;;;6088569;23;20566;-71
2021/11/24 08:23:12;;;;;;;10.30;8.73;;;6.30;99.90;;;;;;6090265;23;20195;-72
2021/11/24 08:25:43;;;;;;;10.85;9.85;;;6.30;99.90;;;;;;6090826;23;20188;-71
2021/11/24 08:28:17;;;;;;;10.80;8.98;;;6.30;99.90;;;;;;6088867;23;20206;-71
2021/11/24 08:30:50;;;;;;;12.48;9.10;;;6.30;99.90;;;;;;6089722;23;20188;-72
2021/11/24 08:33:21;;;;;;;12.30;9.68;;;6.30;99.90;;;;;;6096454;23;20267;-70
2021/11/24 08:35:52;;;;;;;9.70;8.70;;;6.30;99.90;;;;;;6088820;23;20203;-70
2021/11/24 08:38:25;;;;;;;11.73;10.23;;;6.20;99.90;;;;;;6092525;23;20191;-71
2021/11/24 08:40:56;;;;;;;10.13;8.95;;;6.20;99.90;;;;;;6090639;23;20184;-71
2021/11/24 08:43:27;;;;;;;11.43;8.98;;;6.10;99.90;;;;;;6088650;23;20192;-72
2021/11/24 08:46:00;;;;;;;9.07;8.27;;;6.00;99.90;;;;;;6088573;23;20668;-71
2021/11/24 08:48:31;;;;;;;9.50;8.60;;;6.00;99.90;;;;;;6090462;23;20199;-71
2021/11/24 08:51:02;;;;;;;12.05;10.32;;;6.10;99.90;;;;;;6088659;23;20185;-71
2021/11/24 08:53:33;;;;;;;10.20;9.20;;;6.10;99.90;;;;;;6089494;23;20184;-71
2021/11/24 08:56:05;;;;;;;10.90;9.25;;;6.00;99.90;;;;;;6089586;23;20247;-71
2021/11/24 08:58:35;;;;;;;9.48;8.48;;;6.00;99.90;;;;;;6086346;23;20191;-71
2021/11/24 09:01:11;;;;;;;9.98;8.98;;;5.90;99.90;;;;;;6090396;23;20191;-71
2021/11/24 09:03:43;;;;;;;12.70;10.35;;;6.00;99.90;;;;;;6092254;23;20623;-72
2021/11/24 09:11:31;;;;;;;10.05;8.40;;;5.90;99.90;;;;;;6000755;23;20670;-77
2021/11/24 10:32:17;;;;;;;7.22;6.53;;;6.70;99.90;;;;;;6001244;23;20659;-78
2021/11/24 10:37:47;;;;;;;8.18;6.70;;;6.50;99.90;;;;;;6022848;23;20178;-73
2021/11/24 10:43:29;;;;;;;7.32;6.45;;;6.50;99.90;;;;;;6029117;23;20238;-73
2021/11/24 10:49:36;;;;;;;7.53;6.72;;;6.50;99.90;;;;;;6032460;23;20233;-74
2021/11/24 10:52:19;;;;;;;8.63;7.45;;;6.60;99.90;;;;;;6030464;23;20186;-72
2021/11/24 10:55:10;;;;;;;8.07;6.53;;;6.50;99.90;;;;;;6031123;23;20272;-74
2021/11/24 11:01:30;;;;;;;6.35;5.40;;;6.50;99.90;;;;;;6027274;23;20288;-76
2021/11/24 11:04:18;;;;;;;7.35;6.65;;;6.50;99.90;;;;;;6017333;23;20269;-74
2021/11/24 11:06:49;;;;;;;7.25;6.35;;;6.50;99.90;;;;;;6029688;23;20324;-73
2021/11/24 11:09:31;;;;;;;7.43;6.47;;;6.40;99.90;;;;;;6030129;23;20205;-81
2021/11/24 11:12:10;;;;;;;7.35;6.65;;;6.40;99.90;;;;;;6030133;23;20189;-76
2021/11/24 11:14:42;;;;;;;7.72;6.78;;;6.40;99.90;;;;;;6032090;23;20276;-77
2021/11/24 11:17:17;;;;;;;7.03;6.32;;;6.40;99.90;;;;;;6058811;23;20201;-73
2021/11/24 11:19:52;;;;;;;7.65;6.85;;;6.30;99.90;;;;;;6058556;23;20184;-71
2021/11/24 11:22:24;;;;;;;9.40;7.50;;;6.30;99.90;;;;;;6059611;23;20196;-72
2021/11/24 11:24:55;;;;;;;9.27;7.28;;;6.30;99.90;;;;;;6060294;23;20535;-75
2021/11/24 11:27:31;;;;;;;7.78;6.97;;;6.30;99.90;;;;;;6059685;23;20881;-73
2021/11/24 11:33:55;;;;;;;7.07;6.43;;;6.30;99.90;;;;;;6058639;23;20188;-76
2021/11/24 11:36:32;;;;;;;8.85;6.72;;;6.30;99.90;;;;;;6057353;23;20296;-75
2021/11/24 11:39:05;;;;;;;12.65;6.85;;;6.30;99.90;;;;;;6057408;23;20185;-72
2021/11/24 11:41:39;;;;;;;8.32;7.53;;;6.20;99.90;;;;;;6062348;23;20352;-72
2021/11/24 11:44:30;;;;;;;7.72;6.95;;;6.20;99.90;;;;;;6067620;23;20544;-70
2021/11/24 11:47:43;;;;;;;9.75;6.78;;;6.20;99.90;;;;;;6062280;23;20212;-69
2021/11/24 11:50:15;;;;;;;7.85;7.05;;;6.20;99.90;;;;;;6064228;23;20300;-68
2021/11/24 11:53:11;;;;;;;8.48;7.65;;;6.20;99.90;;;;;;6058615;23;20288;-70
2021/11/24 11:55:43;;;;;;;9.32;7.53;;;6.20;99.90;;;;;;6059144;23;20322;-77
2021/11/24 11:58:27;;;;;;;9.50;8.35;;;6.20;99.90;;;;;;6087129;23;20556;-72
2021/11/24 12:01:09;;;;;;;11.15;8.45;;;6.20;99.90;;;;;;6120848;23;20190;-75
2021/11/24 12:04:08;;;;;;;9.35;8.32;;;6.30;99.90;;;;;;6121828;23;20188;-74
2021/11/24 12:06:42;;;;;;;9.95;8.25;;;6.30;99.90;;;;;;6120082;23;20190;-78
2021/11/24 12:09:34;;;;;;;10.35;8.68;;;6.30;99.90;;;;;;6120797;23;20270;-73
2021/11/24 12:12:18;;;;;;;11.30;9.00;;;6.40;99.90;;;;;;6121162;23;20191;-73
2021/11/24 12:15:09;;;;;;;9.57;8.63;;;6.40;99.90;;;;;;6121466;23;20204;-73
2021/11/24 12:18:01;;;;;;;10.60;8.55;;;6.40;99.90;;;;;;6120591;23;20272;-78
2021/11/24 12:20:46;;;;;;;10.95;8.60;;;6.40;99.90;;;;;;6122631;23;20203;-76
2021/11/24 12:23:35;;;;;;;10.07;9.07;;;6.40;99.90;;;;;;6118180;23;20254;-71
2021/11/24 12:26:21;;;;;;;9.52;8.55;;;6.40;99.90;;;;;;6123038;23;20262;-73
2021/11/24 12:28:56;;;;;;;10.18;8.80;;;6.40;99.90;;;;;;6118054;23;20905;-72
2021/11/24 12:31:27;;;;;;;8.82;7.90;;;6.40;99.90;;;;;;6117776;23;20184;-78
2021/11/24 12:34:01;;;;;;;9.00;8.13;;;6.40;99.90;;;;;;6118569;23;20187;-71
2021/11/24 12:36:34;;;;;;;10.73;9.73;;;6.40;99.90;;;;;;6117976;23;20184;-71
2021/11/24 12:39:09;;;;;;;9.73;8.40;;;6.40;99.90;;;;;;6119779;23;20596;-71
2021/11/24 12:42:04;;;;;;;12.18;9.70;;;6.40;99.90;;;;;;6122027;23;20948;-71
2021/11/24 12:44:36;;;;;;;11.82;8.70;;;6.40;99.90;;;;;;6120706;23;20675;-73
2021/11/24 12:47:09;;;;;;;10.07;9.07;;;6.30;99.90;;;;;;6127119;23;20184;-71
2021/11/24 12:49:40;;;;;;;10.48;9.23;;;6.30;99.90;;;;;;6123413;23;20192;-72
2021/11/24 12:52:11;;;;;;;10.55;8.93;;;6.30;99.90;;;;;;6120779;23;20232;-71
2021/11/24 12:54:43;;;;;;;9.30;8.35;;;6.20;99.90;;;;;;6122157;23;20184;-77
2021/11/24 12:57:15;;;;;;;10.02;8.38;;;6.20;99.90;;;;;;6118916;23;20213;-72
2021/11/24 12:59:46;;;;;;;10.43;9.43;;;6.10;99.90;;;;;;6118435;23;20270;-72
2021/11/24 13:02:17;;;;;;;10.43;9.48;;;6.10;99.90;;;;;;6118708;23;20514;-72
2021/11/24 13:04:50;;;;;;;12.50;10.82;;;6.00;99.90;;;;;;6119991;23;20290;-74
2021/11/24 13:07:22;;;;;;;10.07;9.05;;;5.90;99.90;;;;;;6121549;23;20191;-75
2021/11/24 13:09:54;;;;;;;10.82;9.65;;;5.80;99.90;;;;;;6120472;23;20285;-71
2021/11/24 13:12:28;;;;;;;9.98;8.90;;;5.70;99.90;;;;;;6119950;23;20184;-72
2021/11/24 13:15:00;;;;;;;10.48;8.93;;;5.70;99.90;;;;;;6118151;23;20194;-72
2021/11/24 13:17:53;;;;;;;11.95;10.73;;;5.60;99.90;;;;;;6090032;23;20200;-72
2021/11/24 13:20:30;;;;;;;11.10;10.00;;;5.60;99.90;;;;;;6092302;23;20267;-72
2021/11/24 13:23:02;;;;;;;12.18;9.50;;;5.50;99.90;;;;;;6089337;23;20184;-71
2021/11/24 13:25:38;;;;;;;11.80;9.95;;;5.40;99.90;;;;;;6090402;23;20576;-72
2021/11/24 13:28:12;;;;;;;11.38;10.18;;;5.40;99.90;;;;;;6086592;23;20350;-74
2021/11/24 13:30:44;;;;;;;10.30;9.18;;;5.30;99.90;;;;;;6089350;23;20189;-78
2021/11/24 13:33:18;;;;;;;12.50;9.65;;;5.20;99.90;;;;;;6090356;23;20195;-71
2021/11/24 13:35:50;;;;;;;13.40;10.63;;;5.20;99.90;;;;;;6090041;23;20189;-72
2021/11/24 13:38:23;;;;;;;9.80;8.75;;;5.20;99.90;;;;;;6089778;23;20204;-77
2021/11/24 13:40:56;;;;;;;9.95;8.73;;;5.10;99.90;;;;;;6090067;23;20189;-72
2021/11/24 13:43:38;;;;;;;11.50;10.45;;;5.00;99.90;;;;;;6078997;23;20188;-71
2021/11/24 13:46:17;;;;;;;15.07;10.13;;;5.00;99.90;;;;;;6088612;23;20746;-73
2021/11/24 13:48:51;;;;;;;9.85;8.85;;;4.90;99.90;;;;;;6091126;23;20263;-72
2021/11/24 13:51:24;;;;;;;10.48;9.48;;;4.80;99.90;;;;;;6093546;23;20504;-71
2021/11/24 13:54:06;;;;;;;17.42;12.77;;;4.80;99.90;;;;;;6088149;23;20267;-71
2021/11/24 13:56:45;;;;;;;16.88;13.15;;;4.70;99.90;;;;;;6092753;23;20184;-71
2021/11/24 13:59:23;;;;;;;24.55;15.00;;;4.80;99.90;;;;;;6088047;23;20282;-71
2021/11/24 14:02:03;;;;;;;43.67;16.80;;;4.80;99.90;;;;;;6087768;23;20184;-71
2021/11/24 14:04:36;;;;;;;44.30;18.50;;;4.90;99.90;;;;;;6088985;23;20481;-73
2021/11/24 14:07:18;;;;;;;35.08;18.15;;;5.00;99.90;;;;;;6089207;23;20216;-72
2021/11/24 14:09:50;;;;;;;55.80;21.02;;;5.00;99.90;;;;;;6088152;23;20199;-71
2021/11/24 14:12:27;;;;;;;48.63;18.85;;;5.10;99.90;;;;;;6091759;23;20271;-73
2021/11/24 14:15:06;;;;;;;73.03;21.25;;;5.10;99.90;;;;;;6091458;23;20511;-73
2021/11/24 14:17:50;;;;;;;203.27;28.05;;;5.20;99.90;;;;;;6119158;23;20203;-71
2021/11/24 14:20:30;;;;;;;165.35;28.33;;;5.20;99.90;;;;;;6119877;23;20191;-71
2021/11/24 14:23:03;;;;;;;76.63;22.92;;;5.10;99.90;;;;;;6120870;23;20195;-71
2021/11/24 14:25:37;;;;;;;37.95;18.02;;;5.10;99.90;;;;;;6116759;23;20183;-75
2021/11/24 14:28:10;;;;;;;79.70;21.35;;;5.00;99.90;;;;;;6115512;23;20688;-72
2021/11/24 14:30:44;;;;;;;79.55;21.77;;;5.00;99.90;;;;;;6118751;23;20207;-75
2021/11/24 14:33:16;;;;;;;41.17;18.58;;;5.00;99.90;;;;;;6119241;23;20520;-75
2021/11/24 14:35:48;;;;;;;68.05;18.90;;;4.90;99.90;;;;;;6117517;23;20675;-81
2021/11/24 14:38:19;;;;;;;30.13;14.30;;;5.00;99.90;;;;;;6121848;23;20298;-70
2021/11/24 14:40:50;;;;;;;40.38;17.42;;;5.00;99.90;;;;;;6115529;23;20190;-74
2021/11/24 14:43:23;;;;;;;34.08;16.63;;;5.00;99.90;;;;;;6121733;23;20267;-70
2021/11/24 14:45:55;;;;;;;45.60;19.10;;;5.10;99.90;;;;;;6115067;23;20191;-76
2021/11/24 14:48:26;;;;;;;46.63;18.17;;;5.10;99.90;;;;;;6120136;23;20473;-71
2021/11/24 14:50:57;;;;;;;46.55;19.48;;;5.10;99.90;;;;;;6128430;23;20192;-71
2021/11/24 14:53:28;;;;;;;45.35;19.38;;;5.20;99.90;;;;;;6116350;23;20183;-71
2021/11/24 14:56:01;;;;;;;33.83;17.92;;;5.30;99.90;;;;;;6121518;23;20266;-70
2021/11/24 14:58:32;;;;;;;28.10;15.35;;;5.20;99.90;;;;;;6120751;23;20591;-71
2021/11/24 15:01:07;;;;;;;48.15;19.45;;;5.20;99.90;;;;;;6117092;23;20502;-72
2021/11/24 15:03:38;;;;;;;24.38;16.48;;;5.20;99.90;;;;;;6119174;23;20195;-71
2021/11/24 15:06:10;;;;;;;22.17;14.88;;;5.10;99.90;;;;;;6115275;23;20184;-72
2021/11/24 15:08:42;;;;;;;29.55;16.60;;;5.00;99.90;;;;;;6118261;23;20355;-73
2021/11/24 15:11:13;;;;;;;22.13;15.68;;;5.00;99.90;;;;;;6121741;23;20573;-71
2021/11/24 15:13:49;;;;;;;1999.90;430.65;;;5.10;99.90;;;;;;6121441;23;20247;-74
2021/11/24 15:16:23;;;;;;;1999.90;505.85;;;5.30;99.90;;;;;;6114935;23;20223;-76
2021/11/24 15:19:10;;;;;;;304.33;55.63;;;5.50;99.90;;;;;;6117332;23;20239;-72
2021/11/24 15:21:42;;;;;;;1999.90;592.53;;;5.50;99.90;;;;;;6120399;23;20358;-77
2021/11/24 15:24:15;;;;;;;1737.90;302.33;;;5.50;99.90;;;;;;6120452;23;20195;-74
2021/11/24 15:27:01;;;;;;;829.13;133.50;;;5.60;99.90;;;;;;6120764;23;20334;-73
2021/11/24 15:29:35;;;;;;;1999.90;575.95;;;5.50;99.90;;;;;;6119308;23;20490;-72
2021/11/24 15:32:12;;;;;;;1999.90;451.52;;;5.50;99.90;;;;;;6114921;23;20194;-75
2021/11/24 15:34:46;;;;;;;82.78;21.50;;;5.60;99.90;;;;;;6115984;23;20243;-72
2021/11/24 15:37:18;;;;;;;102.13;21.40;;;5.40;99.90;;;;;;6114424;23;20192;-73
2021/11/24 15:39:51;;;;;;;76.20;19.35;;;5.40;99.90;;;;;;6119023;23;20210;-70
2021/11/24 15:42:23;;;;;;;734.85;109.10;;;5.40;99.90;;;;;;6108247;23;20184;-71
2021/11/24 15:44:54;;;;;;;343.73;62.03;;;5.50;99.90;;;;;;6116447;23;20211;-72